createdAt,value
2022-08-26T00:00:56.997Z,101753.91
2022-08-26T00:02:59.203Z,101752.16
2022-08-26T00:05:00.954Z,101743.47
2022-08-26T00:07:02.949Z,101752.16
2022-08-26T00:09:08.133Z,101743.44
2022-08-26T00:11:10.247Z,101753.88
2022-08-26T00:13:13.038Z,101752.13
2022-08-26T00:15:19.085Z,101747.78
2022-08-26T00:17:21.771Z,101762.53
2022-08-26T00:19:23.681Z,101759.03
2022-08-26T00:21:25.482Z,101753.81
2022-08-26T00:23:27.196Z,101749.47
2022-08-26T00:25:42.460Z,101757.28
2022-08-26T00:27:44.611Z,101752.03
2022-08-26T00:29:46.465Z,101745.09
2022-08-26T00:31:48.458Z,101754.63
2022-08-26T00:33:50.985Z,101757.25
2022-08-26T00:35:53.117Z,101755.47
2022-08-26T00:37:55.764Z,101761.53
2022-08-26T00:39:57.948Z,101759.78
2022-08-26T00:42:02.503Z,101766.75
2022-08-26T00:44:04.866Z,101765.00
2022-08-26T00:46:31.487Z,101765.88
2022-08-26T00:48:35.768Z,101766.72
2022-08-26T00:50:41.920Z,101764.94
2022-08-26T00:52:46.068Z,101767.53
2022-08-26T00:54:55.655Z,101767.53
2022-08-26T00:56:59.841Z,101764.88
2022-08-26T00:59:11.962Z,101767.50
2022-08-26T01:01:15.256Z,101758.81
2022-08-26T01:03:19.712Z,101767.47
2022-08-26T01:05:23.794Z,101762.28
2022-08-26T01:07:27.372Z,101769.22
2022-08-26T01:09:30.651Z,101762.25
2022-08-26T01:11:33.139Z,101753.56
2022-08-26T01:13:37.193Z,101753.53
2022-08-26T01:15:49.337Z,101759.59
2022-08-26T01:17:52.354Z,101757.84
2022-08-26T01:20:03.413Z,101765.59
2022-08-26T01:22:28.757Z,101769.13
2022-08-26T01:24:31.659Z,101766.47
2022-08-26T01:26:40.517Z,101758.66
2022-08-26T01:28:43.405Z,101767.31
2022-08-26T01:30:52.596Z,101769.91
2022-08-26T01:32:58.038Z,101765.53
2022-08-26T01:35:00.936Z,101762.06
2022-08-26T01:37:07.729Z,101766.38
2022-08-26T01:39:10.375Z,101764.66
2022-08-26T01:41:19.680Z,101770.72
2022-08-26T01:43:26.043Z,101762.06
2022-08-26T01:45:42.340Z,101766.38
2022-08-26T01:47:46.131Z,101770.72
2022-08-26T01:49:53.609Z,101770.72
2022-08-26T01:51:57.774Z,101773.34
2022-08-26T01:54:00.201Z,101769.00
2022-08-26T01:56:03.755Z,101773.31
2022-08-26T01:58:11.768Z,101775.06
2022-08-26T02:00:16.221Z,101775.94
2022-08-26T02:02:18.127Z,101771.59
2022-08-26T02:04:26.143Z,101773.34
2022-08-26T02:06:27.958Z,101773.31
2022-08-26T02:08:43.860Z,101779.41
2022-08-26T02:10:45.725Z,101774.19
2022-08-26T02:12:47.809Z,101775.91
2022-08-26T02:15:05.570Z,101777.66
2022-08-26T02:17:10.081Z,101771.56
2022-08-26T02:19:17.565Z,101773.31
2022-08-26T02:21:19.295Z,101768.91
2022-08-26T02:23:21.029Z,101777.63
2022-08-26T02:25:32.815Z,101770.69
2022-08-26T02:27:35.408Z,101774.16
2022-08-26T02:29:43.607Z,101769.78
2022-08-26T02:31:45.675Z,101778.44
2022-08-26T02:33:47.457Z,101778.44
2022-08-26T02:35:49.188Z,101775.81
2022-08-26T02:37:52.285Z,101774.06
2022-08-26T02:39:54.392Z,101769.69
2022-08-26T02:41:56.331Z,101766.22
2022-08-26T02:43:58.103Z,101769.69
2022-08-26T02:46:01.987Z,101763.59
2022-08-26T02:48:12.351Z,101770.53
2022-08-26T02:50:14.685Z,101767.09
2022-08-26T02:52:18.898Z,101773.16
2022-08-26T02:54:21.632Z,101775.72
2022-08-26T02:56:23.725Z,101767.94
2022-08-26T02:58:25.486Z,101766.19
2022-08-26T03:00:29.127Z,101770.53
2022-08-26T03:02:30.863Z,101774.88
2022-08-26T03:04:33.345Z,101774.00
2022-08-26T03:06:35.766Z,101771.38
2022-08-26T03:08:39.309Z,101774.81
2022-08-26T03:10:41.357Z,101773.13
2022-08-26T03:12:47.399Z,101784.41
2022-08-26T03:14:49.785Z,101776.53
2022-08-26T03:16:54.490Z,101780.84
2022-08-26T03:18:56.299Z,101784.34
2022-08-26T03:20:58.204Z,101785.22
2022-08-26T03:23:00.427Z,101785.22
2022-08-26T03:25:07.326Z,101780.84
2022-08-26T03:27:09.001Z,101779.97
2022-08-26T03:29:29.221Z,101779.94
2022-08-26T03:31:34.782Z,101786.91
2022-08-26T03:33:36.509Z,101790.38
2022-08-26T03:35:41.741Z,101786.03
2022-08-26T03:37:43.636Z,101785.16
2022-08-26T03:39:45.962Z,101780.81
2022-08-26T03:41:48.038Z,101785.16
2022-08-26T03:43:50.999Z,101780.81
2022-08-26T03:45:52.766Z,101778.16
2022-08-26T03:47:54.663Z,101780.75
2022-08-26T03:49:59.777Z,101782.47
2022-08-26T03:52:02.746Z,101786.81
2022-08-26T03:54:08.436Z,101786.78
2022-08-26T03:56:10.804Z,101786.78
2022-08-26T03:58:12.618Z,101781.59
2022-08-26T04:00:18.468Z,101783.28
2022-08-26T04:02:20.409Z,101780.66
2022-08-26T04:04:22.841Z,101780.56
2022-08-26T04:06:27.599Z,101784.06
2022-08-26T04:08:29.357Z,101784.94
2022-08-26T04:10:31.265Z,101787.47
2022-08-26T04:12:32.992Z,101789.19
2022-08-26T04:14:35.733Z,101785.69
2022-08-26T04:16:39.908Z,101783.97
2022-08-26T04:18:46.461Z,101788.28
2022-08-26T04:20:49.333Z,101781.34
2022-08-26T04:22:51.127Z,101789.94
2022-08-26T04:25:04.157Z,101784.69
2022-08-26T04:27:08.749Z,101784.63
2022-08-26T04:29:20.850Z,101781.16
2022-08-26T04:31:22.889Z,101780.28
2022-08-26T04:33:32.534Z,101780.28
2022-08-26T04:35:37.112Z,101778.53
2022-08-26T04:37:39.393Z,101784.59
2022-08-26T04:39:44.817Z,101778.53
2022-08-26T04:41:50.902Z,101783.72
2022-08-26T04:43:53.584Z,101776.78
2022-08-26T04:45:56.637Z,101777.66
2022-08-26T04:47:58.517Z,101774.13
2022-08-26T04:50:00.317Z,101781.91
2022-08-26T04:52:05.233Z,101773.28
2022-08-26T04:54:07.529Z,101781.09
2022-08-26T04:56:09.218Z,101775.00
2022-08-26T04:58:15.249Z,101779.31
2022-08-26T05:00:17.390Z,101774.13
2022-08-26T05:02:19.427Z,101781.91
2022-08-26T05:04:21.392Z,101774.13
2022-08-26T05:06:24.348Z,101785.38
2022-08-26T05:08:26.336Z,101786.22
2022-08-26T05:10:29.224Z,101777.56
2022-08-26T05:12:31.530Z,101783.63
2022-08-26T05:14:33.648Z,101780.19
2022-08-26T05:16:35.783Z,101782.75
2022-08-26T05:18:41.272Z,101781.03
2022-08-26T05:20:47.839Z,101781.88
2022-08-26T05:22:49.545Z,101781.03
2022-08-26T05:25:04.217Z,101782.75
2022-08-26T05:27:11.513Z,101781.91
2022-08-26T05:29:14.163Z,101781.03
2022-08-26T05:31:19.549Z,101783.66
2022-08-26T05:33:22.088Z,101783.69
2022-08-26T05:35:23.820Z,101785.44
2022-08-26T05:37:25.543Z,101782.84
2022-08-26T05:39:27.298Z,101790.63
2022-08-26T05:41:34.579Z,101783.72
2022-08-26T05:43:38.522Z,101783.72
2022-08-26T05:45:50.270Z,101782.84
2022-08-26T05:47:52.029Z,101784.56
2022-08-26T05:49:53.696Z,101783.72
2022-08-26T05:51:55.393Z,101785.44
2022-08-26T05:53:57.157Z,101793.25
2022-08-26T05:56:00.101Z,101794.13
2022-08-26T05:58:02.753Z,101791.53
2022-08-26T06:00:05.269Z,101792.41
2022-08-26T06:02:08.163Z,101787.19
2022-08-26T06:04:11.441Z,101791.53
2022-08-26T06:06:21.554Z,101790.69
2022-08-26T06:08:29.638Z,101795.03
2022-08-26T06:10:33.119Z,101794.16
2022-08-26T06:12:35.007Z,101795.94
2022-08-26T06:14:37.173Z,101792.44
2022-08-26T06:16:41.363Z,101794.16
2022-08-26T06:18:47.335Z,101790.75
2022-08-26T06:20:57.904Z,101792.44
2022-08-26T06:23:18.328Z,101792.44
2022-08-26T06:25:38.344Z,101795.94
2022-08-26T06:27:40.107Z,101796.81
2022-08-26T06:29:41.989Z,101793.34
2022-08-26T06:31:43.825Z,101799.47
2022-08-26T06:33:45.655Z,101806.41
2022-08-26T06:35:48.281Z,101807.28
2022-08-26T06:37:49.991Z,101808.16
2022-08-26T06:39:51.787Z,101805.59
2022-08-26T06:41:53.554Z,101809.09
2022-08-26T06:43:56.912Z,101809.09
2022-08-26T06:46:08.455Z,101810.00
2022-08-26T06:48:11.035Z,101806.53
2022-08-26T06:50:14.199Z,101801.38
2022-08-26T06:52:21.183Z,101802.28
2022-08-26T06:54:31.802Z,101807.50
2022-08-26T06:56:37.571Z,101804.91
2022-08-26T06:58:40.827Z,101810.16
2022-08-26T07:00:47.383Z,101806.69
2022-08-26T07:02:49.546Z,101814.53
2022-08-26T07:05:02.621Z,101810.22
2022-08-26T07:07:04.399Z,101806.81
2022-08-26T07:09:09.976Z,101801.63
2022-08-26T07:11:12.395Z,101802.50
2022-08-26T07:13:14.225Z,101802.50
2022-08-26T07:15:16.307Z,101804.22
2022-08-26T07:17:18.319Z,101804.25
2022-08-26T07:19:30.505Z,101799.88
2022-08-26T07:21:33.580Z,101798.16
2022-08-26T07:23:36.427Z,101805.16
2022-08-26T07:25:40.641Z,101798.28
2022-08-26T07:27:43.623Z,101806.09
2022-08-26T07:29:45.571Z,101802.50
2022-08-26T07:31:47.370Z,101804.34
2022-08-26T07:33:50.431Z,101807.84
2022-08-26T07:35:52.572Z,101808.75
2022-08-26T07:37:57.050Z,101805.31
2022-08-26T07:40:00.306Z,101812.28
2022-08-26T07:42:07.559Z,101813.13
2022-08-26T07:44:10.261Z,101813.22
2022-08-26T07:46:18.517Z,101816.72
2022-08-26T07:48:23.741Z,101809.84
2022-08-26T07:50:49.001Z,101809.84
2022-08-26T07:52:48.710Z,101802.06
2022-08-26T07:54:59.176Z,101808.19
2022-08-26T07:57:01.635Z,101808.19
2022-08-26T07:59:13.639Z,101813.44
2022-08-26T08:01:16.156Z,101806.56
2022-08-26T08:03:17.879Z,101812.63
2022-08-26T08:05:22.327Z,101811.81
2022-08-26T08:07:45.062Z,101801.34
2022-08-26T08:09:51.372Z,101804.88
2022-08-26T08:11:53.652Z,101799.69
2022-08-26T08:13:56.908Z,101800.59
2022-08-26T08:15:58.694Z,101800.63
2022-08-26T08:18:01.236Z,101804.16
2022-08-26T08:20:04.503Z,101801.56
2022-08-26T08:22:17.050Z,101795.44
2022-08-26T08:24:19.405Z,101792.84
2022-08-26T08:26:22.062Z,101796.34
2022-08-26T08:28:23.816Z,101798.13
2022-08-26T08:30:25.998Z,101793.00
2022-08-26T08:32:29.750Z,101793.81
2022-08-26T08:34:31.670Z,101793.00
2022-08-26T08:36:36.131Z,101793.00
2022-08-26T08:38:38.690Z,101799.09
2022-08-26T08:40:42.389Z,101789.53
2022-08-26T08:42:50.137Z,101793.88
2022-08-26T08:45:04.027Z,101799.97
2022-08-26T08:47:17.714Z,101804.34
2022-08-26T08:49:20.235Z,101797.44
2022-08-26T08:51:34.081Z,101794.84
2022-08-26T08:53:43.082Z,101795.66
2022-08-26T08:56:15.152Z,101803.56
2022-08-26T08:58:21.473Z,101797.50
2022-08-26T09:00:30.343Z,101798.41
2022-08-26T09:02:47.898Z,101796.66
2022-08-26T09:05:21.682Z,101800.16
2022-08-26T09:07:36.718Z,101804.53
2022-08-26T09:10:08.635Z,101800.19
2022-08-26T09:12:20.507Z,101795.91
2022-08-26T09:14:31.616Z,101800.25
2022-08-26T09:16:51.715Z,101802.88
2022-08-26T09:18:56.328Z,101795.03
2022-08-26T09:21:05.822Z,101796.81
2022-08-26T09:23:10.384Z,101794.22
2022-08-26T09:25:14.413Z,101796.81
2022-08-26T09:27:40.708Z,101804.66
2022-08-26T09:29:45.522Z,101790.72
2022-08-26T09:32:13.060Z,101791.59
2022-08-26T09:34:17.360Z,101795.91
2022-08-26T09:36:39.167Z,101799.44
2022-08-26T09:38:42.218Z,101795.09
2022-08-26T09:41:00.962Z,101796.78
2022-08-26T09:43:22.919Z,101787.16
2022-08-26T09:45:29.067Z,101787.97
2022-08-26T09:47:39.129Z,101784.44
2022-08-26T09:49:42.263Z,101785.28
2022-08-26T09:51:44.357Z,101788.72
2022-08-26T09:53:57.801Z,101784.28
2022-08-26T09:56:23.864Z,101780.78
2022-08-26T09:58:38.103Z,101782.47
2022-08-26T10:00:43.269Z,101779.78
2022-08-26T10:02:47.570Z,101783.16
2022-08-26T10:05:09.668Z,101783.06
2022-08-26T10:07:31.940Z,101776.97
2022-08-26T10:09:39.279Z,101775.97
2022-08-26T10:11:50.216Z,101778.59
2022-08-26T10:13:56.917Z,101786.34
2022-08-26T10:16:17.725Z,101773.00
2022-08-26T10:18:25.182Z,101777.25
2022-08-26T10:20:35.240Z,101769.25
2022-08-26T10:22:43.017Z,101773.50
2022-08-26T10:24:51.959Z,101770.66
2022-08-26T10:27:35.001Z,101771.41
2022-08-26T10:29:44.203Z,101774.00
2022-08-26T10:31:55.311Z,101772.28
2022-08-26T10:34:04.404Z,101761.75
2022-08-26T10:36:39.263Z,101763.47
2022-08-26T10:38:48.994Z,101769.41
2022-08-26T10:41:13.903Z,101760.03
2022-08-26T10:43:25.587Z,101754.56
2022-08-26T10:45:30.335Z,101749.09
2022-08-26T10:47:43.471Z,101746.38
2022-08-26T10:49:49.273Z,101752.38
2022-08-26T10:52:18.458Z,101755.50
2022-08-26T10:54:35.209Z,101750.13
2022-08-26T10:56:58.660Z,101745.44
2022-08-26T10:59:44.549Z,101749.84
2022-08-26T11:01:57.776Z,101749.81
2022-08-26T11:04:17.334Z,101751.19
2022-08-26T11:06:18.990Z,101742.97
2022-08-26T11:08:20.790Z,101743.63
2022-08-26T11:10:25.051Z,101740.75
2022-08-26T11:12:36.161Z,101739.56
2022-08-26T11:14:58.427Z,101733.06
2022-08-26T11:17:01.532Z,101735.28
2022-08-26T11:19:04.101Z,101735.28
2022-08-26T11:21:44.502Z,101727.41
2022-08-26T11:23:50.745Z,101738.59
2022-08-26T11:26:09.884Z,101728.47
2022-08-26T11:28:36.338Z,101725.63
2022-08-26T11:30:43.584Z,101726.00
2022-08-26T11:32:55.240Z,101731.47
2022-08-26T11:35:07.396Z,101731.91
2022-08-26T11:37:15.783Z,101727.28
2022-08-26T11:39:20.424Z,101726.44
2022-08-26T11:41:27.484Z,101719.22
2022-08-26T11:43:30.493Z,101720.19
2022-08-26T11:45:41.723Z,101722.41
2022-08-26T11:47:44.795Z,101723.91
2022-08-26T11:49:46.539Z,101719.25
2022-08-26T11:51:48.732Z,101717.25
2022-08-26T11:53:51.354Z,101709.09
2022-08-26T11:55:55.878Z,101712.31
2022-08-26T11:58:00.981Z,101709.50
2022-08-26T12:00:04.105Z,101699.63
2022-08-26T12:02:14.338Z,101703.16
2022-08-26T12:04:38.241Z,101707.44
2022-08-26T12:06:47.883Z,101702.16
2022-08-26T12:08:51.725Z,101711.44
2022-08-26T12:11:21.386Z,101708.75
2022-08-26T12:13:26.511Z,101696.88
2022-08-26T12:15:30.933Z,101697.31
2022-08-26T12:17:33.649Z,101698.81
2022-08-26T12:19:35.483Z,101699.63
2022-08-26T12:21:37.729Z,101692.16
2022-08-26T12:23:44.220Z,101698.69
2022-08-26T12:25:46.649Z,101690.34
2022-08-26T12:27:53.761Z,101688.41
2022-08-26T12:30:17.960Z,101687.44
2022-08-26T12:32:25.046Z,101685.66
2022-08-26T12:34:28.336Z,101692.97
2022-08-26T12:36:37.416Z,101686.38
2022-08-26T12:38:40.586Z,101695.50
2022-08-26T12:40:45.328Z,101687.59
2022-08-26T12:42:47.634Z,101681.72
2022-08-26T12:44:56.589Z,101684.72
2022-08-26T12:47:03.895Z,101690.00
2022-08-26T12:49:05.791Z,101676.66
2022-08-26T12:51:14.669Z,101676.38
2022-08-26T12:53:25.629Z,101683.84
2022-08-26T12:55:33.202Z,101677.59
2022-08-26T12:57:37.596Z,101671.16
2022-08-26T12:59:39.467Z,101670.91
2022-08-26T13:01:43.783Z,101670.28
2022-08-26T13:03:46.626Z,101675.09
2022-08-26T13:05:48.377Z,101679.97
2022-08-26T13:08:10.557Z,101666.75
2022-08-26T13:10:36.506Z,101672.69
2022-08-26T13:12:38.391Z,101667.13
2022-08-26T13:14:40.589Z,101663.22
2022-08-26T13:16:42.609Z,101658.50
2022-08-26T13:18:44.330Z,101653.22
2022-08-26T13:20:46.314Z,101651.31
2022-08-26T13:22:51.708Z,101657.34
2022-08-26T13:25:04.239Z,101646.25
2022-08-26T13:27:08.372Z,101638.53
2022-08-26T13:29:10.666Z,101643.94
2022-08-26T13:31:14.408Z,101643.75
2022-08-26T13:33:18.632Z,101637.38
2022-08-26T13:35:21.427Z,101637.31
2022-08-26T13:37:24.401Z,101626.00
2022-08-26T13:39:36.890Z,101621.94
2022-08-26T13:41:38.903Z,101620.59
2022-08-26T13:43:40.594Z,101613.09
2022-08-26T13:45:42.744Z,101620.38
2022-08-26T13:47:44.716Z,101618.13
2022-08-26T13:49:46.994Z,101627.50
2022-08-26T13:51:48.785Z,101613.84
2022-08-26T13:53:51.532Z,101608.78
2022-08-26T13:55:53.348Z,101608.06
2022-08-26T13:57:56.750Z,101611.28
2022-08-26T13:59:59.588Z,101607.09
2022-08-26T14:02:02.971Z,101617.06
2022-08-26T14:04:04.664Z,101608.78
2022-08-26T14:06:06.364Z,101607.47
2022-08-26T14:08:08.506Z,101600.97
2022-08-26T14:10:10.772Z,101601.03
2022-08-26T14:12:12.586Z,101591.75
2022-08-26T14:14:14.267Z,101590.81
2022-08-26T14:16:25.126Z,101594.50
2022-08-26T14:18:35.449Z,101590.41
2022-08-26T14:20:39.749Z,101591.22
2022-08-26T14:23:03.650Z,101597.94
2022-08-26T14:25:06.162Z,101594.19
2022-08-26T14:27:07.905Z,101593.34
2022-08-26T14:29:12.381Z,101584.94
2022-08-26T14:31:17.331Z,101575.44
2022-08-26T14:33:23.575Z,101577.88
2022-08-26T14:35:28.403Z,101576.06
2022-08-26T14:37:30.098Z,101571.47
2022-08-26T14:39:31.944Z,101580.84
2022-08-26T14:41:37.219Z,101573.88
2022-08-26T14:43:48.366Z,101576.25
2022-08-26T14:45:50.049Z,101575.25
2022-08-26T14:47:53.651Z,101572.56
2022-08-26T14:49:55.404Z,101569.03
2022-08-26T14:51:57.181Z,101567.91
2022-08-26T14:54:14.044Z,101580.00
2022-08-26T14:56:16.840Z,101571.75
2022-08-26T14:58:18.572Z,101579.25
2022-08-26T15:00:20.817Z,101580.13
2022-08-26T15:02:32.578Z,101579.16
2022-08-26T15:04:35.576Z,101567.16
2022-08-26T15:06:38.224Z,101576.78
2022-08-26T15:08:40.209Z,101578.94
2022-08-26T15:10:41.880Z,101565.44
2022-08-26T15:12:44.155Z,101568.34
2022-08-26T15:14:45.974Z,101567.72
2022-08-26T15:16:49.544Z,101559.03
2022-08-26T15:18:51.777Z,101553.53
2022-08-26T15:20:53.487Z,101559.34
2022-08-26T15:22:55.413Z,101557.34
2022-08-26T15:25:05.526Z,101552.75
2022-08-26T15:27:07.380Z,101565.50
2022-08-26T15:29:09.164Z,101560.91
2022-08-26T15:31:10.948Z,101564.34
2022-08-26T15:33:15.370Z,101563.19
2022-08-26T15:35:17.348Z,101565.41
2022-08-26T15:37:19.096Z,101568.09
2022-08-26T15:39:21.036Z,101564.94
2022-08-26T15:41:24.463Z,101562.94
2022-08-26T15:43:29.154Z,101571.25
2022-08-26T15:45:33.318Z,101566.81
2022-08-26T15:47:35.468Z,101558.47
2022-08-26T15:49:48.515Z,101560.06
2022-08-26T15:51:53.173Z,101561.25
2022-08-26T15:53:56.476Z,101552.41
2022-08-26T15:55:59.102Z,101550.16
2022-08-26T15:58:01.341Z,101549.13
2022-08-26T16:00:04.838Z,101552.06
2022-08-26T16:02:07.418Z,101544.72
2022-08-26T16:04:09.712Z,101552.75
2022-08-26T16:06:14.567Z,101552.44
2022-08-26T16:08:16.427Z,101546.84
2022-08-26T16:10:18.652Z,101549.31
2022-08-26T16:12:21.077Z,101545.72
2022-08-26T16:14:23.185Z,101548.16
2022-08-26T16:16:24.919Z,101543.47
2022-08-26T16:18:27.802Z,101539.72
2022-08-26T16:20:32.490Z,101545.47
2022-08-26T16:22:34.203Z,101541.91
2022-08-26T16:24:36.719Z,101536.91
2022-08-26T16:26:40.098Z,101533.91
2022-08-26T16:28:42.137Z,101539.06
2022-08-26T16:30:45.630Z,101535.72
2022-08-26T16:32:48.457Z,101530.69
2022-08-26T16:34:56.187Z,101533.63
2022-08-26T16:36:58.623Z,101533.00
2022-08-26T16:39:00.632Z,101535.03
2022-08-26T16:41:02.433Z,101529.97
2022-08-26T16:43:04.238Z,101534.59
2022-08-26T16:45:06.683Z,101531.19
2022-08-26T16:47:08.334Z,101526.38
2022-08-26T16:49:10.046Z,101530.84
2022-08-26T16:51:18.668Z,101533.56
2022-08-26T16:53:20.350Z,101524.03
2022-08-26T16:55:22.689Z,101532.09
2022-08-26T16:57:24.405Z,101533.88
2022-08-26T16:59:26.287Z,101523.44
2022-08-26T17:01:28.061Z,101531.44
2022-08-26T17:03:29.763Z,101529.06
2022-08-26T17:05:31.467Z,101530.94
2022-08-26T17:07:35.510Z,101533.78
2022-08-26T17:09:37.557Z,101534.72
2022-08-26T17:11:43.919Z,101527.44
2022-08-26T17:13:45.552Z,101536.91
2022-08-26T17:15:54.156Z,101535.28
2022-08-26T17:18:00.102Z,101537.06
2022-08-26T17:20:08.007Z,101534.44
2022-08-26T17:22:09.692Z,101535.41
2022-08-26T17:24:11.531Z,101537.13
2022-08-26T17:26:13.208Z,101529.31
2022-08-26T17:28:15.315Z,101522.47
2022-08-26T17:30:17.806Z,101523.44
2022-08-26T17:32:19.515Z,101522.69
2022-08-26T17:34:21.982Z,101529.78
2022-08-26T17:36:27.474Z,101528.97
2022-08-26T17:38:30.016Z,101527.34
2022-08-26T17:40:31.896Z,101532.66
2022-08-26T17:42:33.638Z,101532.75
2022-08-26T17:44:35.477Z,101529.28
2022-08-26T17:46:38.499Z,101519.72
2022-08-26T17:48:41.455Z,101522.34
2022-08-26T17:50:46.295Z,101529.53
2022-08-26T17:52:51.776Z,101522.63
2022-08-26T17:54:59.278Z,101520.84
2022-08-26T17:57:00.984Z,101526.16
2022-08-26T17:59:04.055Z,101532.38
2022-08-26T18:01:06.392Z,101529.84
2022-08-26T18:03:08.503Z,101526.38
2022-08-26T18:05:13.128Z,101530.84
2022-08-26T18:07:16.255Z,101529.09
2022-08-26T18:09:18.234Z,101531.84
2022-08-26T18:11:23.190Z,101530.06
2022-08-26T18:13:25.350Z,101529.25
2022-08-26T18:15:27.939Z,101525.78
2022-08-26T18:17:30.047Z,101524.09
2022-08-26T18:19:32.046Z,101530.31
2022-08-26T18:21:36.465Z,101533.00
2022-08-26T18:23:38.424Z,101527.72
2022-08-26T18:25:44.318Z,101533.88
2022-08-26T18:27:46.358Z,101536.63
2022-08-26T18:29:48.774Z,101537.59
2022-08-26T18:31:50.649Z,101534.09
2022-08-26T18:33:53.144Z,101538.50
2022-08-26T18:35:55.024Z,101543.81
2022-08-26T18:37:58.518Z,101544.72
2022-08-26T18:40:13.124Z,101540.41
2022-08-26T18:42:15.276Z,101541.34
2022-08-26T18:44:19.438Z,101544.94
2022-08-26T18:46:25.305Z,101544.91
2022-08-26T18:48:28.655Z,101542.41
2022-08-26T18:50:31.291Z,101548.56
2022-08-26T18:52:33.284Z,101547.69
2022-08-26T18:54:36.512Z,101548.59
2022-08-26T18:56:40.201Z,101545.19
2022-08-26T18:58:42.121Z,101544.31
2022-08-26T19:00:44.020Z,101545.28
2022-08-26T19:02:47.047Z,101542.59
2022-08-26T19:05:04.438Z,101542.63
2022-08-26T19:07:07.509Z,101542.72
2022-08-26T19:09:11.864Z,101549.75
2022-08-26T19:11:17.721Z,101550.66
2022-08-26T19:13:33.692Z,101555.13
2022-08-26T19:15:42.756Z,101550.66
2022-08-26T19:17:44.646Z,101549.75
2022-08-26T19:19:47.127Z,101555.00
2022-08-26T19:21:49.012Z,101550.66
2022-08-26T19:23:52.230Z,101551.47
2022-08-26T19:25:54.145Z,101550.59
2022-08-26T19:27:56.142Z,101548.00
2022-08-26T19:29:58.484Z,101553.31
2022-08-26T19:32:02.089Z,101549.78
2022-08-26T19:34:05.452Z,101554.25
2022-08-26T19:36:11.429Z,101555.19
2022-08-26T19:38:16.406Z,101556.91
2022-08-26T19:40:18.375Z,101562.22
2022-08-26T19:42:22.543Z,101557.84
2022-08-26T19:44:42.997Z,101561.38
2022-08-26T19:46:45.546Z,101552.75
2022-08-26T19:48:49.945Z,101552.75
2022-08-26T19:50:54.885Z,101568.53
2022-08-26T19:52:57.123Z,101565.91
2022-08-26T19:55:06.814Z,101566.91
2022-08-26T19:57:08.857Z,101568.69
2022-08-26T19:59:10.864Z,101569.59
2022-08-26T20:01:14.437Z,101574.88
2022-08-26T20:03:16.498Z,101579.25
2022-08-26T20:05:21.164Z,101574.13
2022-08-26T20:07:23.240Z,101568.13
2022-08-26T20:09:25.763Z,101572.47
2022-08-26T20:11:27.548Z,101575.13
2022-08-26T20:13:29.318Z,101574.38
2022-08-26T20:15:31.010Z,101578.75
2022-08-26T20:17:33.078Z,101582.28
2022-08-26T20:19:53.848Z,101579.69
2022-08-26T20:21:55.428Z,101585.03
2022-08-26T20:24:00.708Z,101596.47
2022-08-26T20:26:03.213Z,101595.63
2022-08-26T20:28:05.287Z,101601.78
2022-08-26T20:30:09.752Z,101593.09
2022-08-26T20:32:12.253Z,101596.75
2022-08-26T20:34:18.351Z,101593.19
2022-08-26T20:36:22.120Z,101591.44
2022-08-26T20:38:26.370Z,101593.31
2022-08-26T20:40:29.281Z,101595.94
2022-08-26T20:42:31.203Z,101597.69
2022-08-26T20:44:33.518Z,101595.06
2022-08-26T20:46:35.955Z,101597.69
2022-08-26T20:48:38.391Z,101601.47
2022-08-26T20:50:40.802Z,101601.38
2022-08-26T20:52:42.818Z,101609.25
2022-08-26T20:54:44.844Z,101604.00
2022-08-26T20:56:47.422Z,101611.88
2022-08-26T20:58:50.113Z,101602.31
2022-08-26T21:00:52.476Z,101607.56
2022-08-26T21:02:54.596Z,101604.97
2022-08-26T21:05:05.058Z,101607.63
2022-08-26T21:07:07.166Z,101604.16
2022-08-26T21:09:11.151Z,101606.78
2022-08-26T21:11:13.558Z,101603.31
2022-08-26T21:13:15.441Z,101604.25
2022-08-26T21:15:17.487Z,101605.19
2022-08-26T21:17:19.539Z,101606.94
2022-08-26T21:19:22.020Z,101609.72
2022-08-26T21:21:27.535Z,101607.03
2022-08-26T21:23:29.900Z,101609.72
2022-08-26T21:25:31.811Z,101606.25
2022-08-26T21:27:35.963Z,101608.94
2022-08-26T21:29:37.910Z,101607.25
2022-08-26T21:31:45.496Z,101605.53
2022-08-26T21:33:48.285Z,101604.69
2022-08-26T21:35:54.611Z,101602.06
2022-08-26T21:37:56.351Z,101600.28
2022-08-26T21:39:59.697Z,101602.06
2022-08-26T21:42:01.474Z,101605.59
2022-08-26T21:44:03.612Z,101601.22
2022-08-26T21:46:11.755Z,101607.34
2022-08-26T21:48:13.409Z,101603.09
2022-08-26T21:50:15.168Z,101608.28
2022-08-26T21:52:17.990Z,101604.78
2022-08-26T21:54:19.816Z,101608.31
2022-08-26T21:56:23.328Z,101602.22
2022-08-26T21:58:25.031Z,101610.09
2022-08-26T22:00:26.742Z,101611.88
2022-08-26T22:02:28.549Z,101618.00
2022-08-26T22:04:30.282Z,101607.53
2022-08-26T22:06:34.546Z,101609.28
2022-08-26T22:08:36.707Z,101612.78
2022-08-26T22:10:41.595Z,101614.50
2022-08-26T22:12:43.328Z,101607.56
2022-08-26T22:14:45.700Z,101612.03
2022-08-26T22:16:50.500Z,101610.25
2022-08-26T22:18:54.828Z,101612.88
2022-08-26T22:21:00.932Z,101614.66
2022-08-26T22:23:03.109Z,101611.16
2022-08-26T22:25:06.485Z,101618.19
2022-08-26T22:27:09.089Z,101608.56
2022-08-26T22:29:11.167Z,101612.94
2022-08-26T22:31:14.330Z,101614.72
2022-08-26T22:33:17.395Z,101613.91
2022-08-26T22:35:28.457Z,101612.19
2022-08-26T22:37:31.346Z,101613.94
2022-08-26T22:39:33.365Z,101611.38
2022-08-26T22:41:35.490Z,101611.44
2022-08-26T22:43:38.479Z,101614.06
2022-08-26T22:45:43.269Z,101610.56
2022-08-26T22:47:45.045Z,101611.47
2022-08-26T22:49:46.807Z,101621.97
2022-08-26T22:51:48.824Z,101622.91
2022-08-26T22:53:50.626Z,101619.44
2022-08-26T22:55:52.330Z,101627.28
2022-08-26T22:57:54.098Z,101625.59
2022-08-26T22:59:56.002Z,101622.13
2022-08-26T23:01:57.991Z,101626.53
2022-08-26T23:03:59.874Z,101620.47
2022-08-26T23:06:04.755Z,101628.38
2022-08-26T23:08:07.885Z,101623.16
2022-08-26T23:10:10.181Z,101630.19
2022-08-26T23:12:12.424Z,101623.19
2022-08-26T23:14:14.603Z,101625.78
2022-08-26T23:16:16.430Z,101620.56
2022-08-26T23:18:18.094Z,101617.97
2022-08-26T23:20:19.994Z,101620.59
2022-08-26T23:22:21.655Z,101623.25
2022-08-26T23:24:51.198Z,101625.88
2022-08-26T23:26:52.889Z,101628.56
2022-08-26T23:28:55.527Z,101630.31
2022-08-26T23:30:57.673Z,101623.34
2022-08-26T23:32:59.605Z,101632.13
2022-08-26T23:35:06.516Z,101631.22
2022-08-26T23:37:09.380Z,101625.16
2022-08-26T23:39:11.484Z,101633.13
2022-08-26T23:41:13.644Z,101630.50
2022-08-26T23:43:18.969Z,101629.66
2022-08-26T23:45:22.315Z,101628.91
2022-08-26T23:47:25.055Z,101635.00
2022-08-26T23:49:27.843Z,101632.41
2022-08-26T23:51:48.714Z,101628.97